Time;durP1;ratioP1;P1;durP2;ratioP2;P2;SDS_P1;SDS_P2;PMS_P1;PMS_P2;Temp;Humidity;BMP_temperature;BMP_pressure;BME280_temperature;BME280_humidity;BME280_pressure;Samples;Min_cycle;Max_cycle;Signal;HPM_P1;HPM_P2
2021/12/13 00:01:46;;;;;;;102.63;29.40;;;;;;;;;;5035208;28;20288;-75
2021/12/13 00:04:44;;;;;;;110.13;31.30;;;;;;;;;;5037145;28;20366;-75
2021/12/13 00:07:16;;;;;;;111.83;31.70;;;;;;;;;;5003764;28;20382;-74
2021/12/13 00:09:44;;;;;;;110.53;30.07;;;;;;;;;;5036334;28;20323;-74
2021/12/13 00:12:12;;;;;;;89.27;27.57;;;;;;;;;;5036668;28;20326;-75
2021/12/13 00:14:46;;;;;;;92.60;27.67;;;;;;;;;;5018886;28;20833;-74
2021/12/13 00:17:15;;;;;;;86.47;26.10;;;;;;;;;;5036591;28;20284;-75
2021/12/13 00:19:43;;;;;;;100.37;28.80;;;;;;;;;;5036537;28;20315;-75
2021/12/13 00:22:14;;;;;;;90.97;26.93;;;;;;;;;;5036527;28;20836;-75
2021/12/13 00:24:44;;;;;;;85.97;26.77;;;;;;;;;;5036558;28;20276;-75
2021/12/13 00:27:15;;;;;;;93.20;27.43;;;;;;;;;;5036702;28;20367;-75
2021/12/13 00:29:42;;;;;;;102.27;28.33;;;;;;;;;;5018759;28;20768;-75
2021/12/13 00:32:31;;;;;;;102.87;28.53;;;;;;;;;;5036200;28;20323;-74
2021/12/13 00:34:59;;;;;;;93.67;26.17;;;;;;;;;;5027996;28;20375;-74
2021/12/13 00:37:37;;;;;;;97.47;29.13;;;;;;;;;;5036415;28;20276;-74
2021/12/13 00:40:06;;;;;;;98.13;28.67;;;;;;;;;;5035888;28;20327;-74
2021/12/13 00:42:43;;;;;;;97.70;27.67;;;;;;;;;;5036123;28;20343;-74
2021/12/13 00:45:10;;;;;;;87.60;26.23;;;;;;;;;;5035964;28;20315;-74
2021/12/13 00:47:37;;;;;;;95.13;27.23;;;;;;;;;;5036117;28;20372;-74
2021/12/13 00:50:03;;;;;;;92.10;26.13;;;;;;;;;;5035682;28;20369;-74
2021/12/13 00:52:31;;;;;;;95.30;26.67;;;;;;;;;;5035702;28;20768;-74
2021/12/13 00:54:58;;;;;;;73.17;24.90;;;;;;;;;;5035438;28;20345;-74
2021/12/13 00:57:30;;;;;;;91.53;27.30;;;;;;;;;;5035911;28;20363;-74
2021/12/13 00:59:57;;;;;;;67.93;22.57;;;;;;;;;;5035521;28;20367;-75
2021/12/13 01:02:28;;;;;;;63.27;23.47;;;;;;;;;;5036116;28;20288;-74
2021/12/13 01:04:59;;;;;;;61.83;24.60;;;;;;;;;;5035448;28;20329;-74
2021/12/13 01:07:48;;;;;;;60.53;23.70;;;;;;;;;;5035770;28;20284;-74
2021/12/13 01:10:18;;;;;;;53.17;20.97;;;;;;;;;;5033337;28;20645;-75
2021/12/13 01:12:49;;;;;;;53.60;22.37;;;;;;;;;;5035357;28;20363;-74
2021/12/13 01:15:31;;;;;;;68.53;24.40;;;;;;;;;;5035721;28;20353;-75
2021/12/13 01:18:17;;;;;;;55.27;21.50;;;;;;;;;;5035370;28;20331;-75
2021/12/13 01:21:04;;;;;;;59.93;22.27;;;;;;;;;;5035560;28;20276;-75
2021/12/13 01:23:46;;;;;;;59.67;23.73;;;;;;;;;;5035356;28;20403;-75
2021/12/13 01:28:54;;;;;;;71.20;24.77;;;;;;;;;;5035023;28;20336;-75
2021/12/13 01:31:31;;;;;;;59.03;24.03;;;;;;;;;;5035244;28;20347;-75
2021/12/13 01:33:58;;;;;;;64.30;24.90;;;;;;;;;;5034686;28;20774;-75
2021/12/13 01:36:28;;;;;;;66.43;23.53;;;;;;;;;;5035344;28;20284;-75
2021/12/13 01:38:59;;;;;;;79.43;26.23;;;;;;;;;;5017401;28;20299;-75
2021/12/13 01:41:37;;;;;;;77.60;26.73;;;;;;;;;;5035050;28;20851;-75
2021/12/13 01:44:06;;;;;;;73.47;26.50;;;;;;;;;;5034730;28;20711;-75
2021/12/13 01:46:36;;;;;;;79.77;27.33;;;;;;;;;;5035254;28;20367;-75
2021/12/13 01:49:02;;;;;;;73.77;25.33;;;;;;;;;;5034335;28;20304;-75
2021/12/13 01:51:33;;;;;;;69.53;24.77;;;;;;;;;;5034922;28;20735;-75
2021/12/13 01:54:17;;;;;;;73.43;24.63;;;;;;;;;;5034611;28;20284;-75
2021/12/13 01:56:58;;;;;;;71.53;24.53;;;;;;;;;;5034825;28;20280;-75
2021/12/13 02:02:01;;;;;;;89.60;25.67;;;;;;;;;;5034170;28;20684;-75
2021/12/13 02:04:28;;;;;;;74.47;26.13;;;;;;;;;;5034636;28;20124;-75
2021/12/13 02:07:00;;;;;;;79.13;24.47;;;;;;;;;;5034259;28;20303;-75
2021/12/13 02:09:30;;;;;;;86.47;24.90;;;;;;;;;;5017017;28;20412;-75
2021/12/13 02:11:57;;;;;;;73.60;24.43;;;;;;;;;;5034268;28;20679;-75
2021/12/13 02:14:27;;;;;;;79.37;24.97;;;;;;;;;;5033971;28;20781;-75
2021/12/13 02:19:32;;;;;;;;;;;;;;;;;;5035054;28;20269;-75
2021/12/13 02:22:05;;;;;;;68.47;21.60;;;;;;;;;;5033944;28;19921;-75
2021/12/13 02:24:31;;;;;;;65.40;22.87;;;;;;;;;;5033927;28;20280;-75
2021/12/13 02:26:59;;;;;;;73.07;22.80;;;;;;;;;;5033860;28;20327;-75
2021/12/13 02:29:35;;;;;;;69.23;21.53;;;;;;;;;;5033792;28;20323;-75
2021/12/13 02:32:01;;;;;;;66.43;21.60;;;;;;;;;;5033939;28;20303;-75
2021/12/13 02:34:30;;;;;;;67.83;22.47;;;;;;;;;;5016588;28;20727;-75
2021/12/13 02:36:56;;;;;;;60.57;19.60;;;;;;;;;;5033532;28;20772;-75
2021/12/13 02:39:33;;;;;;;63.47;20.77;;;;;;;;;;5016707;28;20738;-75
2021/12/13 02:42:01;;;;;;;61.90;21.90;;;;;;;;;;5033810;28;20726;-75
2021/12/13 02:44:36;;;;;;;58.00;20.20;;;;;;;;;;5033868;28;20303;-76
2021/12/13 02:47:04;;;;;;;63.20;20.90;;;;;;;;;;5033572;28;20284;-75
2021/12/13 02:49:32;;;;;;;50.13;19.27;;;;;;;;;;5033836;28;20300;-75
2021/12/13 02:52:02;;;;;;;57.30;20.60;;;;;;;;;;5033420;28;20280;-75
2021/12/13 02:54:31;;;;;;;61.90;21.33;;;;;;;;;;5033906;28;20279;-75
2021/12/13 02:57:08;;;;;;;51.57;19.20;;;;;;;;;;5033715;28;20371;-76
2021/12/13 02:59:36;;;;;;;56.97;19.23;;;;;;;;;;5033843;28;20273;-75
2021/12/13 03:02:02;;;;;;;54.37;20.20;;;;;;;;;;5033322;28;20355;-75
2021/12/13 03:04:30;;;;;;;48.73;17.60;;;;;;;;;;5033495;28;20288;-75
2021/12/13 03:07:16;;;;;;;46.83;19.00;;;;;;;;;;5033506;28;20283;-75
2021/12/13 03:09:44;;;;;;;46.63;17.00;;;;;;;;;;5015938;28;20302;-75
2021/12/13 03:12:12;;;;;;;43.20;15.83;;;;;;;;;;5033015;28;20367;-76
2021/12/13 03:14:40;;;;;;;50.87;17.27;;;;;;;;;;5033227;28;20335;-75
2021/12/13 03:17:14;;;;;;;39.27;15.80;;;;;;;;;;5032935;28;20290;-75
2021/12/13 03:19:43;;;;;;;46.53;16.17;;;;;;;;;;5033333;28;20277;-75
2021/12/13 03:22:09;;;;;;;37.60;13.80;;;;;;;;;;5032660;28;20861;-75
2021/12/13 03:24:35;;;;;;;41.53;14.33;;;;;;;;;;5015533;28;20288;-75
2021/12/13 03:27:04;;;;;;;34.33;11.90;;;;;;;;;;5032834;28;20367;-75
2021/12/13 03:29:40;;;;;;;28.93;11.73;;;;;;;;;;5033019;28;20636;-75
2021/12/13 03:32:10;;;;;;;34.67;12.17;;;;;;;;;;5015456;28;20372;-75
2021/12/13 03:34:38;;;;;;;36.00;11.60;;;;;;;;;;5015413;28;20299;-75
2021/12/13 03:37:10;;;;;;;33.90;11.27;;;;;;;;;;5032188;28;20286;-76
2021/12/13 03:39:39;;;;;;;34.20;11.50;;;;;;;;;;5032834;28;20363;-75
2021/12/13 03:42:19;;;;;;;27.70;10.07;;;;;;;;;;5032616;28;20281;-75
2021/12/13 03:44:47;;;;;;;25.10;8.77;;;;;;;;;;5032789;28;20834;-75
2021/12/13 03:47:20;;;;;;;26.97;9.47;;;;;;;;;;5032617;28;20284;-75
2021/12/13 03:49:48;;;;;;;22.30;8.67;;;;;;;;;;5033064;28;20299;-75
2021/12/13 03:52:17;;;;;;;24.30;8.17;;;;;;;;;;5032529;28;20280;-75
2021/12/13 03:54:44;;;;;;;21.17;7.60;;;;;;;;;;5032661;28;20786;-74
2021/12/13 03:57:11;;;;;;;21.33;7.53;;;;;;;;;;5032391;28;20354;-75
2021/12/13 03:59:42;;;;;;;19.17;6.73;;;;;;;;;;5032784;28;20272;-75
2021/12/13 04:02:11;;;;;;;24.07;7.07;;;;;;;;;;5032457;28;20284;-75
2021/12/13 04:04:49;;;;;;;19.57;6.13;;;;;;;;;;5033411;28;20330;-75
2021/12/13 04:07:18;;;;;;;13.50;4.77;;;;;;;;;;5032353;28;20367;-75
2021/12/13 04:09:45;;;;;;;17.57;5.47;;;;;;;;;;5032528;28;20303;-75
2021/12/13 04:12:14;;;;;;;14.90;5.13;;;;;;;;;;5032393;28;20399;-76
2021/12/13 04:14:43;;;;;;;14.10;4.33;;;;;;;;;;5032571;28;20295;-75
2021/12/13 04:17:33;;;;;;;17.87;5.13;;;;;;;;;;5032129;28;20598;-75
2021/12/13 04:20:00;;;;;;;15.73;5.10;;;;;;;;;;5015209;28;20346;-75
2021/12/13 04:22:29;;;;;;;14.77;4.53;;;;;;;;;;5032323;28;20430;-75
2021/12/13 04:24:57;;;;;;;13.87;4.97;;;;;;;;;;4998843;28;20367;-75
2021/12/13 04:27:26;;;;;;;12.17;4.20;;;;;;;;;;5032180;28;20292;-75
2021/12/13 04:29:54;;;;;;;13.07;3.90;;;;;;;;;;5032389;28;20398;-74
2021/12/13 04:32:26;;;;;;;13.47;4.27;;;;;;;;;;5032217;28;20276;-75
2021/12/13 04:34:53;;;;;;;11.00;4.53;;;;;;;;;;5032140;28;20856;-75
2021/12/13 04:37:21;;;;;;;12.43;4.33;;;;;;;;;;5032125;28;20312;-75
2021/12/13 04:39:51;;;;;;;11.47;4.13;;;;;;;;;;5032464;28;20273;-74
2021/12/13 04:42:19;;;;;;;10.60;4.00;;;;;;;;;;5032118;28;20363;-75
2021/12/13 04:44:45;;;;;;;11.00;3.70;;;;;;;;;;5032378;28;20285;-75
2021/12/13 04:47:13;;;;;;;9.77;3.80;;;;;;;;;;5033603;28;20333;-75
2021/12/13 04:49:42;;;;;;;11.93;4.17;;;;;;;;;;5035683;28;20346;-75
2021/12/13 04:52:11;;;;;;;11.60;4.13;;;;;;;;;;5035879;28;20280;-75
2021/12/13 04:54:39;;;;;;;15.70;4.47;;;;;;;;;;5035925;28;20283;-75
2021/12/13 04:57:05;;;;;;;9.90;4.40;;;;;;;;;;5035910;28;20367;-74
2021/12/13 04:59:31;;;;;;;9.87;5.00;;;;;;;;;;5035567;28;20351;-74
2021/12/13 05:01:59;;;;;;;10.13;4.13;;;;;;;;;;5035780;28;20287;-75
2021/12/13 05:04:27;;;;;;;12.67;5.03;;;;;;;;;;5035459;28;20287;-75
2021/12/13 05:06:54;;;;;;;12.37;6.07;;;;;;;;;;5035691;28;20276;-75
2021/12/13 05:09:22;;;;;;;9.60;5.33;;;;;;;;;;5035342;28;20303;-75
2021/12/13 05:11:52;;;;;;;14.00;5.43;;;;;;;;;;5035566;28;20367;-75
2021/12/13 05:14:28;;;;;;;12.80;5.40;;;;;;;;;;5034756;28;20288;-75
2021/12/13 05:16:56;;;;;;;15.57;6.40;;;;;;;;;;5017722;28;20711;-75
2021/12/13 05:19:27;;;;;;;12.07;6.37;;;;;;;;;;5035199;28;20276;-75
2021/12/13 05:21:55;;;;;;;14.33;5.77;;;;;;;;;;5035601;28;20387;-75
2021/12/13 05:24:24;;;;;;;13.80;6.00;;;;;;;;;;5034865;28;20824;-75
2021/12/13 05:26:50;;;;;;;12.70;6.17;;;;;;;;;;5035538;28;20280;-75
2021/12/13 05:29:37;;;;;;;15.27;6.90;;;;;;;;;;5035019;28;20295;-75
2021/12/13 05:32:06;;;;;;;11.40;6.23;;;;;;;;;;5035431;28;20280;-75
2021/12/13 05:34:37;;;;;;;17.93;8.10;;;;;;;;;;5034863;28;20884;-75
2021/12/13 05:37:06;;;;;;;17.00;7.67;;;;;;;;;;5034956;28;20318;-75
2021/12/13 05:39:33;;;;;;;17.10;7.20;;;;;;;;;;5034852;28;20280;-75
2021/12/13 05:42:10;;;;;;;13.77;7.77;;;;;;;;;;5035086;28;20319;-75
2021/12/13 05:44:42;;;;;;;16.33;7.23;;;;;;;;;;5034685;28;20314;-75
2021/12/13 05:47:16;;;;;;;13.43;7.97;;;;;;;;;;5035194;28;20372;-75
2021/12/13 05:49:44;;;;;;;15.87;7.67;;;;;;;;;;5035009;28;20300;-75
2021/12/13 05:52:16;;;;;;;13.27;7.87;;;;;;;;;;5017418;28;20380;-75
2021/12/13 05:54:54;;;;;;;16.30;7.53;;;;;;;;;;5034751;28;20273;-75
2021/12/13 05:57:23;;;;;;;17.07;7.67;;;;;;;;;;5034495;28;20280;-75
2021/12/13 06:00:08;;;;;;;15.43;7.77;;;;;;;;;;5034063;28;20327;-75
2021/12/13 06:02:34;;;;;;;20.67;8.68;;;;;;;;;;5034405;28;20284;-75
2021/12/13 06:05:03;;;;;;;16.33;7.73;;;;;;;;;;5034673;28;20140;-75
2021/12/13 06:07:30;;;;;;;17.13;8.30;;;;;;;;;;5034253;28;20372;-75
2021/12/13 06:09:59;;;;;;;16.87;8.20;;;;;;;;;;5033969;28;20790;-75
2021/12/13 06:12:45;;;;;;;15.80;7.80;;;;;;;;;;5034238;28;20288;-75
2021/12/13 06:15:19;;;;;;;16.30;8.40;;;;;;;;;;5033858;28;20784;-75
2021/12/13 06:17:47;;;;;;;18.30;8.83;;;;;;;;;;5034733;28;20323;-75
2021/12/13 06:20:22;;;;;;;15.57;8.70;;;;;;;;;;5034367;28;20323;-75
2021/12/13 06:22:48;;;;;;;18.75;8.85;;;;;;;;;;5034069;28;20276;-75
2021/12/13 06:25:24;;;;;;;20.90;9.63;;;;;;;;;;5016737;28;20053;-75
2021/12/13 06:27:52;;;;;;;19.03;8.80;;;;;;;;;;5034008;28;20819;-75
2021/12/13 06:30:20;;;;;;;17.97;8.73;;;;;;;;;;5034102;28;20378;-75
2021/12/13 06:32:53;;;;;;;15.77;10.40;;;;;;;;;;5034104;28;20307;-75
2021/12/13 06:35:38;;;;;;;20.90;10.17;;;;;;;;;;5033775;28;20855;-75
2021/12/13 06:38:19;;;;;;;23.30;10.00;;;;;;;;;;5034150;28;20284;-75
2021/12/13 06:40:48;;;;;;;17.93;9.80;;;;;;;;;;5034135;28;20276;-75
2021/12/13 06:43:29;;;;;;;20.10;10.27;;;;;;;;;;5016496;28;20335;-75
2021/12/13 06:45:56;;;;;;;18.67;10.70;;;;;;;;;;5033607;28;20720;-74
2021/12/13 06:48:32;;;;;;;22.50;11.20;;;;;;;;;;5033691;28;20359;-75
2021/12/13 06:50:58;;;;;;;18.93;10.73;;;;;;;;;;5033758;28;20427;-75
2021/12/13 06:53:25;;;;;;;20.20;10.30;;;;;;;;;;5033067;28;20359;-75
2021/12/13 06:55:51;;;;;;;20.93;10.53;;;;;;;;;;5033695;28;20280;-75
2021/12/13 06:58:19;;;;;;;16.83;9.83;;;;;;;;;;5033635;28;20280;-74
2021/12/13 07:00:46;;;;;;;18.27;10.47;;;;;;;;;;5015574;28;20637;-75
2021/12/13 07:03:19;;;;;;;19.67;10.63;;;;;;;;;;5033656;28;20287;-75
2021/12/13 07:05:50;;;;;;;16.37;10.63;;;;;;;;;;5033275;28;20296;-75
2021/12/13 07:08:21;;;;;;;17.67;9.77;;;;;;;;;;5033564;28;20311;-75
2021/12/13 07:10:57;;;;;;;18.03;10.63;;;;;;;;;;5032971;28;20296;-75
2021/12/13 07:13:27;;;;;;;20.37;10.57;;;;;;;;;;5032997;28;20290;-75
2021/12/13 07:16:01;;;;;;;19.07;11.20;;;;;;;;;;5033434;28;20288;-75
2021/12/13 07:18:30;;;;;;;21.60;10.00;;;;;;;;;;5033071;28;20288;-75
2021/12/13 07:21:05;;;;;;;16.07;10.53;;;;;;;;;;5015985;28;20422;-75
2021/12/13 07:23:50;;;;;;;21.33;11.97;;;;;;;;;;5032987;28;20387;-75
2021/12/13 07:26:28;;;;;;;19.38;10.75;;;;;;;;;;5033352;28;20144;-75
2021/12/13 07:28:54;;;;;;;18.70;10.90;;;;;;;;;;5033076;28;20469;-75
2021/12/13 07:31:20;;;;;;;16.53;10.20;;;;;;;;;;5033294;28;20356;-75
2021/12/13 07:33:46;;;;;;;17.40;10.77;;;;;;;;;;5032776;28;20284;-75
2021/12/13 07:36:15;;;;;;;20.67;11.07;;;;;;;;;;5015475;28;20288;-75
2021/12/13 07:38:50;;;;;;;20.17;11.87;;;;;;;;;;5032739;28;20814;-78
2021/12/13 07:41:17;;;;;;;21.90;11.75;;;;;;;;;;5015311;28;20629;-75
2021/12/13 07:43:44;;;;;;;19.43;12.37;;;;;;;;;;5032806;28;20098;-76
2021/12/13 07:46:19;;;;;;;21.40;13.47;;;;;;;;;;5032991;28;20284;-76
2021/12/13 07:48:45;;;;;;;23.10;13.25;;;;;;;;;;5032592;28;20629;-75
2021/12/13 07:51:20;;;;;;;21.77;13.80;;;;;;;;;;5032949;28;20136;-76
2021/12/13 07:53:58;;;;;;;23.30;13.73;;;;;;;;;;5032685;28;20284;-76
2021/12/13 07:56:50;;;;;;;24.87;14.03;;;;;;;;;;5015141;28;20416;-73
2021/12/13 07:59:16;;;;;;;25.23;15.67;;;;;;;;;;5029839;28;20323;-74
2021/12/13 08:02:01;;;;;;;23.10;14.27;;;;;;;;;;5032536;28;20291;-73
2021/12/13 08:04:32;;;;;;;25.53;15.77;;;;;;;;;;5032932;28;20334;-73
2021/12/13 08:07:18;;;;;;;26.03;15.27;;;;;;;;;;5032982;28;20276;-73
2021/12/13 08:09:51;;;;;;;23.90;16.10;;;;;;;;;;5032388;28;20307;-73
2021/12/13 08:12:18;;;;;;;25.53;16.87;;;;;;;;;;5032786;28;20288;-73
2021/12/13 08:14:45;;;;;;;28.50;18.07;;;;;;;;;;5014452;28;20307;-73
2021/12/13 08:17:15;;;;;;;28.03;17.23;;;;;;;;;;5032654;28;20287;-73
2021/12/13 08:19:42;;;;;;;27.43;16.97;;;;;;;;;;5032516;28;20367;-73
2021/12/13 08:22:13;;;;;;;24.17;17.23;;;;;;;;;;5034110;28;20280;-73
2021/12/13 08:24:41;;;;;;;31.87;18.27;;;;;;;;;;5036335;28;20682;-73
2021/12/13 08:27:28;;;;;;;29.80;17.67;;;;;;;;;;5019381;28;20430;-73
2021/12/13 08:30:12;;;;;;;26.63;18.77;;;;;;;;;;5035550;28;20373;-73
2021/12/13 08:32:38;;;;;;;30.27;19.23;;;;;;;;;;5036221;28;20322;-74
2021/12/13 08:35:06;;;;;;;25.60;17.87;;;;;;;;;;5036458;28;20283;-73
2021/12/13 08:37:34;;;;;;;27.40;18.40;;;;;;;;;;5036129;28;20418;-74
2021/12/13 08:40:09;;;;;;;25.93;18.63;;;;;;;;;;5036240;28;20363;-73
2021/12/13 08:42:42;;;;;;;30.77;19.95;;;;;;;;;;5036125;28;20359;-74
2021/12/13 08:45:32;;;;;;;29.03;19.63;;;;;;;;;;5036196;28;20042;-73
2021/12/13 08:48:00;;;;;;;28.13;19.57;;;;;;;;;;5009049;28;20288;-74
2021/12/13 08:50:35;;;;;;;28.43;18.90;;;;;;;;;;5036007;28;20302;-73
2021/12/13 08:53:04;;;;;;;26.92;18.85;;;;;;;;;;5035932;28;20822;-73
2021/12/13 08:55:33;;;;;;;26.03;18.30;;;;;;;;;;5036074;28;20136;-73
2021/12/13 08:58:12;;;;;;;29.33;20.87;;;;;;;;;;5035928;28;20295;-74
2021/12/13 09:00:38;;;;;;;26.53;17.87;;;;;;;;;;5035621;28;20745;-73
2021/12/13 09:03:11;;;;;;;27.47;18.80;;;;;;;;;;5018242;28;20280;-73
2021/12/13 09:05:47;;;;;;;28.83;19.97;;;;;;;;;;5035204;28;20285;-73
2021/12/13 09:08:15;;;;;;;24.30;18.00;;;;;;;;;;5035868;28;20273;-73
2021/12/13 09:10:47;;;;;;;23.77;17.80;;;;;;;;;;5035337;28;20299;-74
2021/12/13 09:13:14;;;;;;;25.07;19.13;;;;;;;;;;5018201;28;20289;-73
2021/12/13 09:15:41;;;;;;;26.67;17.50;;;;;;;;;;5034877;28;20363;-73
2021/12/13 09:18:08;;;;;;;25.60;17.27;;;;;;;;;;5035584;28;20371;-75
2021/12/13 09:20:39;;;;;;;24.67;18.37;;;;;;;;;;5035499;28;20282;-74
2021/12/13 09:23:17;;;;;;;22.13;17.23;;;;;;;;;;5035717;28;20339;-74
2021/12/13 09:25:44;;;;;;;22.30;16.53;;;;;;;;;;5034629;28;20838;-73
2021/12/13 09:28:24;;;;;;;24.47;17.93;;;;;;;;;;5035403;28;20295;-73
2021/12/13 09:31:05;;;;;;;25.67;17.80;;;;;;;;;;5034908;28;20383;-73
2021/12/13 09:33:37;;;;;;;24.83;17.73;;;;;;;;;;5033903;28;20285;-73
2021/12/13 09:36:14;;;;;;;23.63;16.83;;;;;;;;;;5035313;28;20276;-73
2021/12/13 09:39:00;;;;;;;21.97;16.70;;;;;;;;;;5033672;28;20826;-73
2021/12/13 09:41:27;;;;;;;22.60;15.33;;;;;;;;;;5035361;28;20288;-72
2021/12/13 09:43:58;;;;;;;23.63;16.60;;;;;;;;;;5034938;28;20280;-72
2021/12/13 09:46:54;;;;;;;22.77;16.40;;;;;;;;;;5035049;28;20339;-73
2021/12/13 09:49:32;;;;;;;22.42;16.05;;;;;;;;;;4981418;28;20313;-72
2021/12/13 09:51:58;;;;;;;24.40;17.73;;;;;;;;;;5034744;28;20144;-74
2021/12/13 09:54:27;;;;;;;20.67;15.67;;;;;;;;;;5035020;28;20284;-72
2021/12/13 09:56:56;;;;;;;21.60;16.80;;;;;;;;;;5033638;28;20272;-73
2021/12/13 09:59:22;;;;;;;20.57;15.53;;;;;;;;;;5033972;28;20276;-72
2021/12/13 10:01:48;;;;;;;23.53;16.73;;;;;;;;;;5016704;28;20680;-75
2021/12/13 10:04:20;;;;;;;21.93;15.13;;;;;;;;;;5034643;28;20287;-77
2021/12/13 10:06:48;;;;;;;21.30;15.40;;;;;;;;;;5034440;28;20362;-78
2021/12/13 10:09:16;;;;;;;22.17;16.47;;;;;;;;;;5016916;28;20756;-80
2021/12/13 10:11:57;;;;;;;23.10;14.70;;;;;;;;;;5016614;28;20350;-74
2021/12/13 10:14:25;;;;;;;32.57;14.97;;;;;;;;;;5034505;28;20301;-73
2021/12/13 10:16:54;;;;;;;24.97;14.73;;;;;;;;;;5016631;28;20363;-72
2021/12/13 10:19:24;;;;;;;21.30;14.63;;;;;;;;;;5017237;28;20335;-74
2021/12/13 10:21:50;;;;;;;20.83;14.90;;;;;;;;;;5034155;28;20284;-73
2021/12/13 10:24:28;;;;;;;22.33;14.00;;;;;;;;;;5034393;28;20827;-73
2021/12/13 10:26:56;;;;;;;18.13;13.90;;;;;;;;;;5033880;28;20280;-74
2021/12/13 10:29:24;;;;;;;19.33;13.73;;;;;;;;;;5034091;28;20296;-74
2021/12/13 10:31:55;;;;;;;22.20;14.57;;;;;;;;;;5033890;28;20288;-74
2021/12/13 10:34:24;;;;;;;23.60;14.67;;;;;;;;;;5034130;28;20383;-74
2021/12/13 10:36:54;;;;;;;17.23;13.37;;;;;;;;;;5016131;28;20910;-77
2021/12/13 10:39:23;;;;;;;22.63;14.70;;;;;;;;;;5034081;28;20628;-74
2021/12/13 10:41:50;;;;;;;18.70;14.33;;;;;;;;;;5033534;28;20319;-74
2021/12/13 10:44:25;;;;;;;20.03;14.33;;;;;;;;;;5016037;28;20335;-72
2021/12/13 10:46:52;;;;;;;20.45;14.05;;;;;;;;;;5033836;28;20291;-72
2021/12/13 10:49:21;;;;;;;25.00;14.23;;;;;;;;;;5032011;28;20081;-77
2021/12/13 10:51:55;;;;;;;22.33;12.97;;;;;;;;;;5024372;28;20299;-70
2021/12/13 10:54:23;;;;;;;17.10;13.73;;;;;;;;;;5028230;28;20477;-71
2021/12/13 10:56:53;;;;;;;18.57;13.73;;;;;;;;;;5025636;28;20041;-72
2021/12/13 10:59:20;;;;;;;18.50;14.00;;;;;;;;;;5026913;28;20276;-76
2021/12/13 11:01:50;;;;;;;16.43;14.10;;;;;;;;;;5009656;28;20281;-77
2021/12/13 11:04:18;;;;;;;18.77;13.93;;;;;;;;;;5028618;28;20268;-73
2021/12/13 11:06:45;;;;;;;21.27;14.60;;;;;;;;;;5028071;28;20319;-74
2021/12/13 11:09:13;;;;;;;21.90;13.97;;;;;;;;;;5008594;28;20308;-73
2021/12/13 11:11:46;;;;;;;19.30;13.57;;;;;;;;;;5027016;28;20364;-74
2021/12/13 11:14:14;;;;;;;22.57;13.63;;;;;;;;;;5027315;28;20290;-75
2021/12/13 11:16:43;;;;;;;20.50;13.77;;;;;;;;;;5028027;28;20372;-74
2021/12/13 11:19:12;;;;;;;18.80;14.50;;;;;;;;;;5031878;28;20288;-72
2021/12/13 11:21:41;;;;;;;17.53;12.97;;;;;;;;;;5032805;28;20287;-71
2021/12/13 11:24:09;;;;;;;18.30;13.97;;;;;;;;;;5015327;28;20385;-71
2021/12/13 11:26:36;;;;;;;18.97;13.87;;;;;;;;;;5033108;28;20276;-71
2021/12/13 11:29:05;;;;;;;21.47;14.77;;;;;;;;;;5015337;28;20375;-71
2021/12/13 11:31:31;;;;;;;19.43;13.37;;;;;;;;;;5015742;28;20346;-70
2021/12/13 11:34:01;;;;;;;20.70;14.33;;;;;;;;;;5032730;28;20363;-74
2021/12/13 11:36:30;;;;;;;17.87;14.10;;;;;;;;;;5033057;28;20288;-71
2021/12/13 11:39:15;;;;;;;23.40;15.10;;;;;;;;;;5015067;28;20300;-71
2021/12/13 11:42:00;;;;;;;18.83;13.93;;;;;;;;;;5015459;28;20284;-74
2021/12/13 11:44:26;;;;;;;22.00;14.30;;;;;;;;;;5032624;28;20502;-71
2021/12/13 11:47:12;;;;;;;20.13;14.27;;;;;;;;;;5031257;28;20379;-72
2021/12/13 11:49:49;;;;;;;22.10;14.80;;;;;;;;;;5032558;28;20730;-70
2021/12/13 11:52:45;;;;;;;22.70;15.63;;;;;;;;;;5032784;28;20302;-70
2021/12/13 11:55:25;;;;;;;20.90;15.10;;;;;;;;;;4979806;28;20305;-70
2021/12/13 11:57:53;;;;;;;22.63;15.40;;;;;;;;;;5032043;28;20053;-72
2021/12/13 12:00:29;;;;;;;23.40;15.63;;;;;;;;;;5015445;28;20358;-71
2021/12/13 12:03:14;;;;;;;23.63;14.80;;;;;;;;;;5032244;28;20816;-72
2021/12/13 12:05:46;;;;;;;24.57;15.87;;;;;;;;;;5030764;28;20386;-72
2021/12/13 12:08:31;;;;;;;23.17;14.87;;;;;;;;;;5032593;28;20384;-81
2021/12/13 12:11:08;;;;;;;25.25;13.98;;;;;;;;;;5032361;28;20798;-81
2021/12/13 12:13:36;;;;;;;23.23;15.60;;;;;;;;;;5032800;28;20103;-82
2021/12/13 12:16:03;;;;;;;23.47;15.03;;;;;;;;;;5032368;28;20292;-83
2021/12/13 12:18:31;;;;;;;24.20;13.87;;;;;;;;;;5032457;28;20294;-82
2021/12/13 12:21:16;;;;;;;21.80;14.17;;;;;;;;;;5032323;28;20272;-80
2021/12/13 12:23:43;;;;;;;20.00;14.35;;;;;;;;;;5032638;28;20291;-74
2021/12/13 12:26:09;;;;;;;24.30;15.03;;;;;;;;;;5032290;28;20154;-74
2021/12/13 12:28:37;;;;;;;23.87;14.90;;;;;;;;;;5032603;28;20628;-73
2021/12/13 12:31:03;;;;;;;23.93;15.13;;;;;;;;;;5032213;28;20336;-74
2021/12/13 12:33:32;;;;;;;27.00;14.67;;;;;;;;;;5032133;28;20638;-75
2021/12/13 12:36:01;;;;;;;20.50;15.10;;;;;;;;;;5032068;28;20283;-76
2021/12/13 12:38:37;;;;;;;20.30;13.80;;;;;;;;;;5014854;28;20363;-75
2021/12/13 12:41:06;;;;;;;18.73;14.23;;;;;;;;;;5032068;28;20355;-74
2021/12/13 12:43:36;;;;;;;18.87;14.33;;;;;;;;;;5032305;28;20691;-74
2021/12/13 12:46:06;;;;;;;21.17;14.30;;;;;;;;;;5031767;28;20374;-75
2021/12/13 12:48:42;;;;;;;22.83;14.10;;;;;;;;;;5032535;28;20310;-74
2021/12/13 12:51:17;;;;;;;25.30;14.03;;;;;;;;;;5014483;28;20304;-74
2021/12/13 12:53:46;;;;;;;23.58;15.38;;;;;;;;;;5032354;28;20374;-74
2021/12/13 12:56:18;;;;;;;23.17;13.60;;;;;;;;;;5031913;28;20085;-74
2021/12/13 12:58:56;;;;;;;24.03;15.13;;;;;;;;;;5032310;28;20285;-74
2021/12/13 13:01:28;;;;;;;26.87;15.13;;;;;;;;;;5031942;28;20792;-74
2021/12/13 13:04:05;;;;;;;20.33;13.60;;;;;;;;;;5032284;28;20284;-74
2021/12/13 13:06:32;;;;;;;23.50;14.77;;;;;;;;;;5032199;28;20280;-74
2021/12/13 13:08:58;;;;;;;22.20;13.97;;;;;;;;;;5034750;28;20280;-75
2021/12/13 13:11:31;;;;;;;21.77;14.00;;;;;;;;;;5035661;28;20363;-74
2021/12/13 13:13:59;;;;;;;21.23;14.27;;;;;;;;;;5035757;28;20287;-74
2021/12/13 13:16:30;;;;;;;19.73;14.20;;;;;;;;;;5035953;28;20375;-74
2021/12/13 13:18:56;;;;;;;19.47;13.07;;;;;;;;;;5035788;28;20296;-74
2021/12/13 13:21:23;;;;;;;20.63;14.43;;;;;;;;;;5017795;28;20629;-75
2021/12/13 13:23:51;;;;;;;18.20;13.93;;;;;;;;;;5035924;28;20280;-75
2021/12/13 13:26:18;;;;;;;23.80;14.40;;;;;;;;;;5035117;28;20323;-75
2021/12/13 13:28:48;;;;;;;23.13;13.70;;;;;;;;;;5035571;28;20363;-74
2021/12/13 13:31:14;;;;;;;20.80;13.43;;;;;;;;;;5034309;28;20807;-75
2021/12/13 13:33:46;;;;;;;18.93;14.20;;;;;;;;;;5035360;28;20367;-74
2021/12/13 13:36:17;;;;;;;23.07;13.73;;;;;;;;;;5035068;28;20303;-75
2021/12/13 13:38:44;;;;;;;20.43;13.43;;;;;;;;;;5035023;28;20319;-75
2021/12/13 13:41:20;;;;;;;19.00;13.67;;;;;;;;;;5034942;28;20268;-75
2021/12/13 13:43:46;;;;;;;20.07;13.03;;;;;;;;;;5035805;28;20287;-75
2021/12/13 13:46:13;;;;;;;20.17;13.77;;;;;;;;;;5034885;28;20288;-75
2021/12/13 13:48:40;;;;;;;18.00;13.43;;;;;;;;;;5001325;28;20391;-75
2021/12/13 13:51:17;;;;;;;21.00;14.77;;;;;;;;;;5034581;28;20385;-75
2021/12/13 13:53:46;;;;;;;18.90;13.30;;;;;;;;;;5017564;28;20760;-74
2021/12/13 13:56:36;;;;;;;19.17;14.13;;;;;;;;;;5034486;28;20784;-74
2021/12/13 13:59:11;;;;;;;19.70;14.23;;;;;;;;;;5012071;28;20310;-74
2021/12/13 14:01:50;;;;;;;19.47;13.97;;;;;;;;;;5017637;28;20284;-74
2021/12/13 14:04:18;;;;;;;23.97;14.27;;;;;;;;;;5034521;28;20052;-74
2021/12/13 14:06:45;;;;;;;24.87;14.70;;;;;;;;;;5017450;28;20379;-74
2021/12/13 14:09:14;;;;;;;20.07;14.07;;;;;;;;;;5034471;28;20272;-74
2021/12/13 14:11:47;;;;;;;23.10;15.23;;;;;;;;;;5034591;28;20295;-74
2021/12/13 14:14:13;;;;;;;19.03;14.87;;;;;;;;;;5034136;28;20278;-74
2021/12/13 14:16:44;;;;;;;22.47;15.10;;;;;;;;;;5034781;28;20292;-74
2021/12/13 14:19:13;;;;;;;21.33;16.40;;;;;;;;;;5033496;28;20272;-75
2021/12/13 14:21:43;;;;;;;22.13;15.13;;;;;;;;;;5034484;28;20319;-74
2021/12/13 14:24:09;;;;;;;21.73;15.03;;;;;;;;;;5034033;28;20303;-75
2021/12/13 14:26:36;;;;;;;25.60;16.83;;;;;;;;;;5034511;28;20280;-73
2021/12/13 14:29:05;;;;;;;25.53;16.50;;;;;;;;;;5034208;28;20359;-73
2021/12/13 14:31:38;;;;;;;24.60;16.43;;;;;;;;;;5034321;28;20740;-78
2021/12/13 14:34:06;;;;;;;24.37;16.20;;;;;;;;;;5034389;28;20295;-73
2021/12/13 14:36:39;;;;;;;23.77;16.80;;;;;;;;;;5034359;28;20359;-75
2021/12/13 14:39:14;;;;;;;22.97;16.30;;;;;;;;;;5034249;28;20276;-73
2021/12/13 14:41:45;;;;;;;27.80;16.23;;;;;;;;;;5000333;28;20323;-76
2021/12/13 14:44:13;;;;;;;24.77;16.40;;;;;;;;;;5033642;28;20057;-77
2021/12/13 14:46:47;;;;;;;22.23;16.10;;;;;;;;;;5016604;28;20631;-81
2021/12/13 14:49:16;;;;;;;28.43;17.77;;;;;;;;;;5033475;28;20764;-78
2021/12/13 14:51:47;;;;;;;26.97;17.07;;;;;;;;;;5016404;28;20297;-76